createdAt,value
2022-11-22T00:01:24.825Z,25.50
2022-11-22T00:03:53.465Z,32.40
2022-11-22T00:06:22.209Z,29.70
2022-11-22T00:08:50.711Z,25.80
2022-11-22T00:11:19.320Z,34.10
2022-11-22T00:13:48.123Z,34.10
2022-11-22T00:16:16.762Z,33.80
2022-11-22T00:18:45.405Z,37.00
2022-11-22T00:21:13.968Z,35.50
2022-11-22T00:23:42.476Z,24.10
2022-11-22T00:26:12.407Z,32.50
2022-11-22T00:28:41.089Z,29.20
2022-11-22T00:31:09.746Z,39.60
2022-11-22T00:33:38.367Z,37.80
2022-11-22T00:36:07.200Z,28.60
2022-11-22T00:38:35.927Z,29.10
2022-11-22T00:41:04.702Z,39.00
2022-11-22T00:43:33.439Z,35.30
2022-11-22T00:46:02.278Z,37.00
2022-11-22T00:48:30.980Z,33.80
2022-11-22T00:50:59.980Z,34.70
2022-11-22T00:53:28.598Z,36.90
2022-11-22T00:55:57.267Z,38.00
2022-11-22T00:58:25.966Z,29.90
2022-11-22T01:00:56.763Z,33.90
2022-11-22T01:03:26.348Z,31.00
2022-11-22T01:05:55.030Z,29.10
2022-11-22T01:08:23.877Z,34.90
2022-11-22T01:10:58.632Z,33.70
2022-11-22T01:13:29.591Z,36.00
2022-11-22T01:16:08.706Z,36.60
2022-11-22T01:18:38.004Z,29.70
2022-11-22T01:21:07.137Z,35.00
2022-11-22T01:23:36.372Z,31.00
2022-11-22T01:26:09.295Z,32.70
2022-11-22T01:28:37.945Z,29.20
2022-11-22T01:31:06.708Z,24.10
2022-11-22T01:33:35.483Z,30.70
2022-11-22T01:36:04.608Z,29.90
2022-11-22T01:38:33.375Z,29.70
2022-11-22T01:41:02.131Z,35.00
2022-11-22T01:43:30.867Z,34.90
2022-11-22T01:46:26.022Z,38.40
2022-11-22T01:49:02.429Z,43.70
2022-11-22T01:51:49.810Z,38.80
2022-11-22T01:54:24.722Z,41.20
2022-11-22T01:56:59.335Z,34.70
2022-11-22T01:59:33.444Z,40.70
2022-11-22T02:02:03.705Z,39.60
2022-11-22T02:04:34.282Z,46.00
2022-11-22T02:07:21.297Z,32.00
2022-11-22T02:09:53.281Z,34.00
2022-11-22T02:12:28.910Z,39.80
2022-11-22T02:18:03.887Z,38.10
2022-11-22T02:20:33.049Z,37.20
2022-11-22T02:23:23.335Z,39.70
2022-11-22T02:25:58.873Z,35.90
2022-11-22T02:28:31.237Z,36.80
2022-11-22T02:30:59.933Z,39.90
2022-11-22T02:33:28.581Z,43.20
2022-11-22T02:35:57.547Z,40.50
2022-11-22T02:38:35.090Z,48.80
2022-11-22T02:41:12.885Z,46.90
2022-11-22T02:43:46.937Z,48.20
2022-11-22T02:46:24.604Z,45.30
2022-11-22T02:48:53.124Z,53.50
2022-11-22T02:51:21.764Z,52.90
2022-11-22T02:53:52.530Z,55.50
2022-11-22T02:56:21.190Z,56.10
2022-11-22T02:58:49.813Z,47.30
2022-11-22T03:01:18.454Z,50.40
2022-11-22T03:03:47.107Z,45.80
2022-11-22T03:06:15.675Z,38.20
2022-11-22T03:08:44.538Z,22.20
2022-11-22T03:11:13.086Z,27.30
2022-11-22T03:13:41.698Z,27.40
2022-11-22T03:16:10.681Z,31.30
2022-11-22T03:18:39.270Z,40.00
2022-11-22T03:21:10.229Z,35.40
2022-11-22T03:23:38.948Z,46.20
2022-11-22T03:26:12.638Z,44.50
2022-11-22T03:28:41.164Z,45.40
2022-11-22T03:31:09.627Z,40.70
2022-11-22T03:33:38.381Z,36.50
2022-11-22T03:36:07.033Z,35.80
2022-11-22T03:38:36.321Z,40.80
2022-11-22T03:41:05.010Z,45.10
2022-11-22T03:43:33.743Z,39.20
2022-11-22T03:46:02.380Z,38.10
2022-11-22T03:48:31.308Z,30.20
2022-11-22T03:51:07.447Z,29.70
2022-11-22T03:53:36.234Z,32.60
2022-11-22T03:56:05.921Z,32.30
2022-11-22T03:58:34.921Z,35.90
2022-11-22T04:01:04.095Z,46.40
2022-11-22T04:03:33.477Z,42.80
2022-11-22T04:06:02.266Z,38.20
2022-11-22T04:08:31.044Z,27.80
2022-11-22T04:10:59.703Z,26.80
2022-11-22T04:14:30.801Z,35.10
2022-11-22T04:16:59.511Z,36.40
2022-11-22T04:19:28.700Z,31.20
2022-11-22T04:22:00.539Z,31.30
2022-11-22T04:24:47.365Z,33.00
2022-11-22T04:27:16.883Z,21.50
2022-11-22T04:29:49.116Z,38.20
2022-11-22T04:32:42.399Z,41.80
2022-11-22T04:35:39.363Z,36.20
2022-11-22T04:38:09.877Z,32.90
2022-11-22T04:40:45.134Z,32.40
2022-11-22T04:43:47.989Z,35.10
2022-11-22T04:46:17.891Z,35.50
2022-11-22T04:48:50.358Z,35.70
2022-11-22T04:51:38.377Z,29.50
2022-11-22T04:54:07.549Z,39.40
2022-11-22T04:56:42.669Z,40.00
2022-11-22T04:59:11.327Z,47.20
2022-11-22T05:01:40.134Z,45.30
2022-11-22T05:04:09.309Z,37.40
2022-11-22T05:06:38.369Z,40.20
2022-11-22T05:09:07.423Z,39.80
2022-11-22T05:11:36.171Z,27.50
2022-11-22T05:14:04.918Z,41.10
2022-11-22T05:16:48.449Z,39.30
2022-11-22T05:19:20.282Z,46.60
2022-11-22T05:25:00.050Z,46.90
2022-11-22T05:27:28.768Z,52.90
2022-11-22T05:29:57.602Z,50.30
2022-11-22T05:32:26.542Z,53.40
2022-11-22T05:34:55.352Z,53.60
2022-11-22T05:37:25.178Z,51.10
2022-11-22T05:39:54.064Z,55.60
2022-11-22T05:42:22.926Z,87.30
2022-11-22T05:44:51.992Z,42.00
2022-11-22T05:47:20.875Z,33.80
2022-11-22T05:49:50.073Z,49.40
2022-11-22T05:52:18.774Z,37.00
2022-11-22T05:54:47.487Z,43.70
2022-11-22T05:57:16.110Z,44.40
2022-11-22T05:59:44.666Z,56.40
2022-11-22T06:02:13.717Z,46.70
2022-11-22T06:04:43.035Z,53.90
2022-11-22T06:07:12.023Z,49.50
2022-11-22T06:09:40.718Z,47.70
2022-11-22T06:12:09.722Z,46.00
2022-11-22T06:14:42.948Z,51.90
2022-11-22T06:17:12.688Z,52.60
2022-11-22T06:19:41.625Z,47.80
2022-11-22T06:22:10.485Z,50.00
2022-11-22T06:24:39.237Z,48.20
2022-11-22T06:27:07.969Z,48.10
2022-11-22T06:29:36.951Z,56.90
2022-11-22T06:32:05.791Z,57.30
2022-11-22T06:34:34.615Z,56.20
2022-11-22T06:37:03.303Z,64.00
2022-11-22T06:39:32.379Z,47.80
2022-11-22T06:42:01.883Z,49.90
2022-11-22T06:44:34.390Z,51.10
2022-11-22T06:47:04.197Z,48.80
2022-11-22T06:49:33.142Z,50.30
2022-11-22T06:52:02.621Z,66.80
2022-11-22T06:54:33.865Z,30.90
2022-11-22T06:57:02.702Z,51.30
2022-11-22T06:59:32.092Z,55.30
2022-11-22T07:02:06.105Z,51.90
2022-11-22T07:04:36.260Z,54.90
2022-11-22T07:07:05.194Z,51.60
2022-11-22T07:09:34.235Z,46.80
2022-11-22T07:12:05.726Z,53.60
2022-11-22T07:14:34.433Z,54.70
2022-11-22T07:17:03.283Z,54.70
2022-11-22T07:19:33.563Z,63.40
2022-11-22T07:22:03.529Z,59.90
2022-11-22T07:24:32.287Z,57.00
2022-11-22T07:27:01.173Z,35.30
2022-11-22T07:29:30.379Z,46.20
2022-11-22T07:31:59.706Z,48.10
2022-11-22T07:34:28.485Z,39.40
2022-11-22T07:37:00.462Z,49.50
2022-11-22T07:39:31.541Z,53.80
2022-11-22T07:42:00.543Z,38.80
2022-11-22T07:44:29.603Z,60.20
2022-11-22T07:46:58.330Z,53.50
2022-11-22T07:49:27.318Z,47.60
2022-11-22T07:51:56.735Z,65.10
2022-11-22T07:54:26.110Z,47.60
2022-11-22T07:56:54.982Z,52.40
2022-11-22T07:59:24.126Z,60.30
2022-11-22T08:01:52.953Z,57.10
2022-11-22T08:04:21.958Z,71.70
2022-11-22T08:06:50.851Z,64.80
2022-11-22T08:09:19.686Z,58.50
2022-11-22T08:11:48.731Z,76.20
2022-11-22T08:14:17.748Z,69.10
2022-11-22T08:16:46.628Z,59.80
2022-11-22T08:19:17.980Z,72.50
2022-11-22T08:21:52.706Z,82.70
2022-11-22T08:24:26.027Z,60.20
2022-11-22T08:26:54.798Z,34.50
2022-11-22T08:29:23.755Z,33.40
2022-11-22T08:31:52.654Z,43.80
2022-11-22T08:34:21.653Z,55.40
2022-11-22T08:36:50.494Z,46.30
2022-11-22T08:39:19.249Z,43.70
2022-11-22T08:41:48.906Z,43.70
2022-11-22T08:44:17.682Z,56.30
2022-11-22T08:46:46.931Z,44.00
2022-11-22T08:49:15.754Z,56.30
2022-11-22T08:51:45.663Z,46.40
2022-11-22T08:54:15.944Z,60.10
2022-11-22T08:56:44.775Z,65.20
2022-11-22T08:59:13.742Z,43.40
2022-11-22T09:01:42.671Z,39.00
2022-11-22T09:04:11.705Z,47.80
2022-11-22T09:09:37.281Z,50.50
2022-11-22T09:12:07.899Z,48.50
2022-11-22T09:14:36.862Z,61.50
2022-11-22T09:17:06.493Z,63.00
2022-11-22T09:19:35.451Z,59.10
2022-11-22T09:22:04.354Z,60.80
2022-11-22T09:24:33.297Z,55.80
2022-11-22T09:27:02.059Z,53.30
2022-11-22T09:29:31.232Z,27.40
2022-11-22T09:32:00.244Z,47.70
2022-11-22T09:34:28.875Z,42.30
2022-11-22T09:36:57.675Z,57.10
2022-11-22T09:39:26.409Z,43.50
2022-11-22T09:42:25.750Z,44.20
2022-11-22T09:45:38.248Z,44.70
2022-11-22T09:48:47.601Z,45.30
2022-11-22T09:51:23.444Z,46.90
2022-11-22T09:54:18.900Z,43.10
2022-11-22T09:56:53.052Z,43.10
2022-11-22T09:59:34.829Z,40.20
2022-11-22T10:02:19.476Z,35.40
2022-11-22T10:05:04.329Z,34.70
2022-11-22T10:07:47.543Z,26.30
2022-11-22T10:10:41.526Z,44.80
2022-11-22T10:13:28.188Z,52.80
2022-11-22T10:30:07.564Z,45.10
2022-11-22T10:33:18.818Z,50.30
2022-11-22T10:36:19.447Z,38.00
2022-11-22T10:39:41.168Z,26.80
2022-11-22T10:42:35.089Z,27.30
2022-11-22T10:45:45.793Z,33.70
2022-11-22T10:48:42.879Z,38.90
2022-11-22T10:51:57.131Z,38.20
2022-11-22T10:54:50.236Z,32.70
2022-11-22T11:00:21.101Z,26.00
2022-11-22T11:03:12.272Z,34.20
2022-11-22T11:10:02.998Z,28.20
2022-11-22T11:11:50.741Z,31.40
2022-11-22T11:16:55.176Z,44.50
2022-11-22T11:19:28.859Z,32.00
2022-11-22T11:22:51.584Z,41.50
2022-11-22T11:25:32.825Z,33.50
2022-11-22T11:28:18.021Z,31.30
2022-11-22T11:31:02.110Z,24.90
2022-11-22T11:33:35.381Z,27.00
2022-11-22T11:36:22.278Z,33.30
2022-11-22T11:38:58.397Z,38.80
2022-11-22T11:41:37.336Z,26.70
2022-11-22T11:44:36.676Z,34.60
2022-11-22T11:47:05.983Z,35.90
2022-11-22T11:49:35.726Z,37.50
2022-11-22T11:55:16.769Z,36.60
2022-11-22T11:58:20.975Z,37.90
2022-11-22T12:00:49.867Z,27.60
2022-11-22T12:03:21.056Z,29.20
2022-11-22T12:06:12.352Z,24.60
2022-11-22T12:08:41.908Z,29.10
2022-11-22T12:11:23.536Z,22.70
2022-11-22T12:16:58.191Z,32.50
2022-11-22T12:19:56.473Z,28.20
2022-11-22T12:22:50.870Z,26.10
2022-11-22T12:28:25.329Z,18.70
2022-11-22T12:31:12.001Z,24.80
2022-11-22T12:33:51.329Z,26.90
2022-11-22T12:36:47.381Z,29.60
2022-11-22T12:39:23.948Z,25.70
2022-11-22T12:42:02.248Z,22.80
2022-11-22T12:44:40.074Z,24.00
2022-11-22T12:47:16.682Z,25.80
2022-11-22T12:48:32.936Z,23.40
2022-11-22T12:53:29.267Z,29.60
2022-11-22T12:56:10.796Z,30.30
2022-11-22T12:59:10.245Z,30.80
2022-11-22T13:02:04.822Z,24.90
2022-11-22T13:15:32.648Z,17.10
2022-11-22T13:18:01.881Z,32.90
2022-11-22T13:20:43.251Z,30.90
2022-11-22T13:23:41.438Z,27.20
2022-11-22T13:26:57.998Z,28.10
2022-11-22T13:29:47.970Z,25.00
2022-11-22T13:32:23.539Z,22.80
2022-11-22T13:35:12.439Z,21.90
2022-11-22T13:37:46.278Z,22.50
2022-11-22T13:43:59.754Z,26.40
2022-11-22T13:47:13.816Z,29.10
2022-11-22T13:49:48.816Z,24.80
2022-11-22T13:52:18.173Z,23.70
2022-11-22T13:54:47.054Z,21.50
2022-11-22T13:57:40.085Z,29.00
2022-11-22T14:00:12.108Z,21.50
2022-11-22T14:02:49.872Z,22.30
2022-11-22T14:05:41.972Z,34.80
2022-11-22T14:08:48.887Z,29.00
2022-11-22T14:11:21.537Z,34.70
2022-11-22T14:14:02.344Z,27.00
2022-11-22T14:17:08.450Z,30.40
2022-11-22T14:20:04.878Z,41.20
2022-11-22T14:22:42.428Z,36.20
2022-11-22T14:25:39.765Z,58.20
2022-11-22T14:28:20.575Z,32.60
2022-11-22T14:34:30.087Z,43.00
2022-11-22T14:37:11.217Z,45.50
2022-11-22T14:39:53.635Z,50.10
2022-11-22T14:42:38.128Z,59.80
2022-11-22T14:45:12.733Z,50.40
2022-11-22T14:47:41.976Z,54.70
2022-11-22T14:50:25.986Z,53.20
2022-11-22T14:53:30.210Z,48.70
2022-11-22T14:56:23.229Z,62.20
2022-11-22T14:59:11.715Z,73.50
2022-11-22T15:02:26.060Z,85.50
2022-11-22T15:09:15.255Z,57.10
2022-11-22T15:09:33.309Z,58.60
2022-11-22T15:12:45.645Z,79.30
2022-11-22T15:57:54.464Z,87.70
2022-11-22T16:00:30.229Z,82.40
2022-11-22T16:06:20.124Z,92.40
2022-11-22T16:09:35.797Z,72.60
2022-11-22T16:12:23.581Z,86.90
2022-11-22T16:14:53.283Z,81.90
2022-11-22T16:17:38.496Z,95.30
2022-11-22T16:20:22.656Z,78.10
2022-11-22T16:23:33.401Z,88.90
2022-11-22T16:26:29.978Z,65.60
2022-11-22T16:29:39.236Z,90.80
2022-11-22T16:32:17.201Z,85.00
2022-11-22T16:34:51.576Z,94.20
2022-11-22T16:37:37.512Z,101.20
2022-11-22T16:40:08.336Z,111.90
2022-11-22T16:42:41.530Z,158.50
2022-11-22T16:45:22.103Z,174.20
2022-11-22T16:48:33.907Z,191.20
2022-11-22T16:51:12.296Z,175.50
2022-11-22T16:53:48.367Z,175.90
2022-11-22T16:56:22.170Z,168.70
2022-11-22T17:12:36.767Z,110.90
2022-11-22T17:15:06.241Z,107.20
2022-11-22T17:17:35.074Z,109.90
2022-11-22T17:20:04.304Z,91.50
2022-11-22T17:22:33.116Z,87.30
2022-11-22T17:25:01.950Z,82.50
2022-11-22T17:27:30.824Z,82.70
2022-11-22T17:29:59.676Z,107.00
2022-11-22T17:32:28.456Z,108.50
2022-11-22T17:34:57.305Z,132.60
2022-11-22T17:37:29.531Z,113.30
2022-11-22T17:39:58.400Z,111.10
2022-11-22T17:42:27.413Z,64.30
2022-11-22T17:44:56.771Z,76.50
2022-11-22T17:47:25.897Z,105.20
2022-11-22T17:49:54.854Z,126.50
2022-11-22T17:52:23.588Z,151.80
2022-11-22T17:54:53.476Z,162.70
2022-11-22T17:57:22.380Z,126.70
2022-11-22T17:59:51.158Z,72.00
2022-11-22T18:02:20.206Z,60.40
2022-11-22T18:04:48.860Z,83.40
2022-11-22T18:32:27.975Z,68.40
2022-11-22T18:34:55.696Z,77.00
2022-11-22T18:37:24.620Z,83.20
2022-11-22T18:39:52.073Z,70.80
2022-11-22T18:42:22.111Z,57.50
2022-11-22T18:44:49.465Z,48.70
2022-11-22T18:47:16.873Z,75.90
2022-11-22T18:49:48.137Z,87.90
2022-11-22T18:52:17.884Z,65.80
2022-11-22T18:54:46.318Z,76.80
2022-11-22T18:57:13.796Z,79.30
2022-11-22T18:59:41.321Z,68.10
2022-11-22T19:02:08.749Z,89.80
2022-11-22T19:04:36.603Z,59.60
2022-11-22T19:07:04.196Z,46.30
2022-11-22T19:09:31.852Z,55.40
2022-11-22T19:11:59.493Z,61.60
2022-11-22T19:14:30.595Z,75.70
2022-11-22T19:19:59.367Z,83.20
2022-11-22T19:22:28.320Z,81.60
2022-11-22T19:24:56.920Z,73.90
2022-11-22T19:27:26.583Z,68.50
2022-11-22T19:29:56.895Z,97.70
2022-11-22T19:32:25.923Z,90.90
2022-11-22T19:34:54.627Z,95.00
2022-11-22T19:37:23.322Z,87.60
2022-11-22T19:39:52.079Z,96.80
2022-11-22T19:42:21.408Z,104.90
2022-11-22T19:44:50.521Z,110.90
2022-11-22T19:47:19.938Z,105.00
2022-11-22T19:49:48.809Z,109.50
2022-11-22T19:52:17.481Z,129.20
2022-11-22T19:54:49.062Z,124.50
2022-11-22T19:57:25.539Z,122.60
2022-11-22T19:59:59.770Z,116.80
2022-11-22T20:02:28.793Z,128.20
2022-11-22T20:04:58.815Z,130.50
2022-11-22T20:07:30.336Z,120.80
2022-11-22T20:09:59.105Z,124.10
2022-11-22T20:12:27.927Z,124.20
2022-11-22T20:14:56.485Z,130.20
2022-11-22T20:17:25.760Z,123.40
2022-11-22T20:19:54.617Z,112.50
2022-11-22T20:22:23.349Z,115.00
2022-11-22T20:24:52.108Z,116.40
2022-11-22T20:27:24.678Z,126.30
2022-11-22T20:29:53.773Z,124.70
2022-11-22T20:32:23.415Z,126.30
2022-11-22T20:34:52.042Z,122.30
2022-11-22T20:37:20.674Z,122.70
2022-11-22T20:39:49.227Z,129.00
2022-11-22T20:42:34.958Z,137.20
2022-11-22T20:45:08.675Z,136.40
2022-11-22T20:47:37.388Z,118.60
2022-11-22T20:50:06.710Z,98.00
2022-11-22T20:52:35.431Z,109.30
2022-11-22T20:55:05.479Z,113.40
2022-11-22T20:57:34.993Z,122.80
2022-11-22T21:00:04.060Z,118.70
2022-11-22T21:02:34.694Z,117.40
2022-11-22T21:05:03.289Z,110.60
2022-11-22T21:07:32.042Z,93.50
2022-11-22T21:10:00.718Z,87.80
2022-11-22T21:12:29.634Z,87.30
2022-11-22T21:14:58.301Z,99.70
2022-11-22T21:18:02.378Z,130.20
2022-11-22T21:20:15.960Z,143.20
2022-11-22T21:22:44.682Z,139.90
2022-11-22T21:25:13.174Z,142.20
2022-11-22T21:27:41.937Z,140.50
2022-11-22T21:30:11.378Z,127.40
2022-11-22T21:32:39.968Z,116.60
2022-11-22T21:35:09.762Z,102.50
2022-11-22T21:37:41.510Z,98.30
2022-11-22T21:40:11.310Z,94.50
2022-11-22T21:42:40.844Z,96.10
2022-11-22T21:45:09.790Z,93.40
2022-11-22T21:47:38.296Z,91.00
2022-11-22T21:50:11.443Z,83.60
2022-11-22T21:52:40.371Z,82.90
2022-11-22T21:55:09.921Z,81.60
2022-11-22T21:57:38.495Z,80.70
2022-11-22T22:00:08.408Z,84.90
2022-11-22T22:02:37.360Z,93.60
2022-11-22T22:05:06.283Z,100.10
2022-11-22T22:07:51.996Z,81.00
2022-11-22T22:10:21.388Z,72.80
2022-11-22T22:12:53.103Z,77.90
2022-11-22T22:15:21.940Z,80.00
2022-11-22T22:17:54.553Z,80.60
2022-11-22T22:20:24.120Z,74.20
2022-11-22T22:22:52.742Z,70.80
2022-11-22T22:25:21.340Z,66.80
2022-11-22T22:27:50.053Z,63.10
2022-11-22T22:30:18.736Z,68.60
2022-11-22T22:32:47.416Z,58.00
2022-11-22T22:35:16.141Z,65.80
2022-11-22T22:37:44.589Z,68.10
2022-11-22T22:40:13.266Z,66.60
2022-11-22T22:42:41.697Z,60.90
2022-11-22T22:45:11.171Z,58.00
2022-11-22T22:47:39.655Z,54.80
2022-11-22T22:50:08.754Z,53.90
2022-11-22T22:52:37.346Z,59.00
2022-11-22T22:55:06.780Z,56.40
2022-11-22T22:57:35.411Z,61.70
2022-11-22T23:00:04.808Z,57.90
2022-11-22T23:02:33.381Z,52.80
2022-11-22T23:05:01.964Z,54.40
2022-11-22T23:07:30.580Z,53.80
2022-11-22T23:09:59.113Z,53.70
2022-11-22T23:12:27.601Z,53.30
2022-11-22T23:14:56.143Z,47.90
2022-11-22T23:17:26.525Z,50.50
2022-11-22T23:19:55.178Z,57.40
2022-11-22T23:22:26.060Z,52.80
2022-11-22T23:24:54.983Z,53.60
2022-11-22T23:27:23.510Z,55.70
2022-11-22T23:29:52.204Z,56.60
2022-11-22T23:32:21.059Z,60.70
2022-11-22T23:34:49.764Z,52.40
2022-11-22T23:37:18.400Z,60.60
2022-11-22T23:39:47.141Z,56.00
2022-11-22T23:42:15.632Z,51.20
2022-11-22T23:44:44.311Z,55.40
2022-11-22T23:47:12.941Z,55.10
2022-11-22T23:49:42.004Z,56.70
2022-11-22T23:52:10.759Z,58.10
2022-11-22T23:54:42.393Z,55.30
2022-11-22T23:57:11.087Z,68.70
2022-11-22T23:59:39.497Z,99.70
